createdAt,value
2022-12-09T00:02:07.777Z,49.55
2022-12-09T00:07:02.062Z,46.78
2022-12-09T00:11:57.473Z,42.47
2022-12-09T00:16:51.514Z,41.75
2022-12-09T00:21:51.072Z,36.67
2022-12-09T00:26:45.224Z,38.78
2022-12-09T00:31:39.349Z,40.33
2022-12-09T00:36:35.288Z,40.10
2022-12-09T00:41:30.386Z,40.17
2022-12-09T00:46:24.648Z,37.88
2022-12-09T00:51:20.883Z,40.35
2022-12-09T00:56:14.635Z,40.22
2022-12-09T01:01:09.301Z,42.55
2022-12-09T01:06:12.897Z,45.53
2022-12-09T01:11:14.830Z,39.97
2022-12-09T01:16:23.108Z,48.60
2022-12-09T01:21:17.260Z,43.63
2022-12-09T01:26:11.478Z,45.53
2022-12-09T01:31:10.157Z,41.97
2022-12-09T01:36:08.010Z,42.10
2022-12-09T01:41:02.112Z,44.03
2022-12-09T01:45:54.867Z,41.53
2022-12-09T01:51:14.411Z,46.95
2022-12-09T01:56:20.521Z,42.72
2022-12-09T02:01:13.518Z,42.45
2022-12-09T02:06:07.658Z,40.13
2022-12-09T02:11:27.448Z,42.97
2022-12-09T02:16:23.721Z,43.05
2022-12-09T02:21:23.911Z,42.90
2022-12-09T02:26:31.687Z,50.17
2022-12-09T02:31:47.914Z,44.50
2022-12-09T02:37:07.498Z,41.58
2022-12-09T02:42:03.323Z,47.93
2022-12-09T02:46:58.993Z,41.55
2022-12-09T02:51:53.239Z,47.67
2022-12-09T02:56:54.128Z,43.97
2022-12-09T03:02:06.542Z,45.08
2022-12-09T03:07:16.523Z,48.33
2022-12-09T03:12:12.312Z,47.90
2022-12-09T03:17:20.371Z,45.25
2022-12-09T03:22:20.913Z,47.13
2022-12-09T03:27:19.376Z,48.72
2022-12-09T03:32:12.886Z,46.72
2022-12-09T03:37:07.797Z,46.65
2022-12-09T03:42:05.719Z,52.22
2022-12-09T03:47:01.080Z,51.60
2022-12-09T03:52:18.351Z,51.35
2022-12-09T03:57:19.095Z,44.67
2022-12-09T04:02:12.875Z,47.90
2022-12-09T04:07:06.972Z,45.80
2022-12-09T04:12:01.694Z,45.65
2022-12-09T04:16:55.385Z,43.83
2022-12-09T04:21:48.960Z,44.35
2022-12-09T04:26:43.190Z,47.85
2022-12-09T04:31:37.322Z,45.83
2022-12-09T04:36:30.392Z,42.38
2022-12-09T04:41:24.057Z,48.58
2022-12-09T04:46:18.669Z,48.03
2022-12-09T04:51:14.456Z,44.58
2022-12-09T04:56:17.143Z,46.15
2022-12-09T05:01:13.096Z,46.78
2022-12-09T05:06:13.364Z,47.22
2022-12-09T05:11:07.058Z,52.65
2022-12-09T05:16:16.402Z,48.83
2022-12-09T05:21:13.756Z,48.63
2022-12-09T05:26:09.551Z,47.33
2022-12-09T05:31:04.939Z,49.60
2022-12-09T05:35:57.978Z,52.75
2022-12-09T05:40:52.042Z,47.58
2022-12-09T05:45:46.077Z,55.47
2022-12-09T05:50:40.180Z,55.03
2022-12-09T05:55:34.958Z,51.10
2022-12-09T06:00:29.719Z,47.20
2022-12-09T06:05:24.511Z,51.00
2022-12-09T06:10:18.937Z,51.85
2022-12-09T06:15:17.026Z,53.00
2022-12-09T06:20:14.529Z,54.25
2022-12-09T06:25:09.311Z,48.35
2022-12-09T06:30:03.360Z,54.00
2022-12-09T06:34:57.336Z,49.72
2022-12-09T06:39:51.001Z,44.00
2022-12-09T06:44:45.553Z,45.63
2022-12-09T06:49:40.425Z,46.28
2022-12-09T06:54:36.016Z,46.92
2022-12-09T06:59:29.364Z,43.38
2022-12-09T07:04:24.112Z,43.15
2022-12-09T07:09:20.147Z,40.95
2022-12-09T07:14:16.154Z,48.65
2022-12-09T07:19:18.405Z,42.22
2022-12-09T07:24:13.478Z,40.03
2022-12-09T07:29:07.992Z,42.83
2022-12-09T07:34:03.131Z,41.42
2022-12-09T07:39:08.433Z,38.38
2022-12-09T07:44:01.952Z,41.65
2022-12-09T07:48:56.210Z,36.55
2022-12-09T07:53:50.329Z,36.53
2022-12-09T07:58:45.837Z,33.95
2022-12-09T08:03:40.297Z,30.55
2022-12-09T08:08:34.850Z,29.85
2022-12-09T08:13:29.224Z,30.38
2022-12-09T08:18:24.579Z,37.40
2022-12-09T08:23:18.716Z,27.27
2022-12-09T08:28:13.027Z,25.35
2022-12-09T08:33:07.515Z,28.67
2022-12-09T08:38:01.673Z,26.67
2022-12-09T08:42:56.170Z,23.85
2022-12-09T08:47:50.028Z,27.70
2022-12-09T08:52:44.354Z,21.23
2022-12-09T08:57:37.941Z,23.30
2022-12-09T09:02:32.730Z,27.08
2022-12-09T09:07:26.369Z,31.23
2022-12-09T09:12:20.897Z,33.75
2022-12-09T09:17:15.204Z,37.85
2022-12-09T09:22:10.000Z,32.60
2022-12-09T09:27:02.904Z,29.25
2022-12-09T09:31:57.343Z,32.88
2022-12-09T09:36:52.039Z,63.58
2022-12-09T09:42:10.377Z,146.93
2022-12-09T09:47:13.151Z,149.23
2022-12-09T09:52:10.256Z,60.78
2022-12-09T09:57:36.016Z,40.35
2022-12-09T10:02:55.972Z,48.85
2022-12-09T10:08:04.057Z,96.22
2022-12-09T10:13:12.361Z,68.18
2022-12-09T10:18:28.876Z,29.00
2022-12-09T10:23:23.578Z,33.33
2022-12-09T10:28:32.002Z,25.70
2022-12-09T10:33:37.118Z,27.73
2022-12-09T10:38:32.406Z,18.80
2022-12-09T10:43:38.711Z,22.90
2022-12-09T10:48:38.731Z,18.13
2022-12-09T10:53:33.146Z,17.40
2022-12-09T10:58:31.808Z,17.23
2022-12-09T11:03:38.930Z,20.40
2022-12-09T11:08:33.271Z,18.98
2022-12-09T11:13:38.608Z,17.00
2022-12-09T11:18:38.095Z,16.10
2022-12-09T11:23:31.705Z,15.05
2022-12-09T11:28:41.980Z,15.15
2022-12-09T11:34:03.403Z,15.60
2022-12-09T11:39:11.790Z,14.07
2022-12-09T11:44:21.531Z,12.52
2022-12-09T11:49:17.408Z,12.70
2022-12-09T11:54:23.298Z,37.38
2022-12-09T11:59:21.926Z,27.95
2022-12-09T12:04:32.897Z,17.43
2022-12-09T12:09:49.277Z,38.83
2022-12-09T12:14:43.705Z,15.68
2022-12-09T12:19:41.473Z,10.73
2022-12-09T12:24:46.402Z,10.00
2022-12-09T12:29:49.946Z,8.73
2022-12-09T12:34:55.958Z,9.73
2022-12-09T12:40:22.001Z,9.85
2022-12-09T12:45:54.956Z,10.30
2022-12-09T12:51:16.220Z,7.07
2022-12-09T12:56:16.413Z,9.13
2022-12-09T13:01:13.837Z,7.68
2022-12-09T13:06:16.399Z,8.15
2022-12-09T13:11:14.727Z,7.35
2022-12-09T13:16:30.532Z,7.45
2022-12-09T13:21:28.951Z,8.23
2022-12-09T13:26:21.583Z,116.32
2022-12-09T13:31:14.899Z,21.65
2022-12-09T13:36:14.231Z,8.25
2022-12-09T13:41:52.012Z,6.90
2022-12-09T13:46:46.566Z,6.68
2022-12-09T13:51:53.421Z,6.60
2022-12-09T13:57:03.614Z,6.55
2022-12-09T14:02:31.926Z,8.90
2022-12-09T14:07:36.798Z,6.20
2022-12-09T14:12:31.195Z,7.70
2022-12-09T14:17:27.729Z,6.70
2022-12-09T14:22:21.103Z,6.63
2022-12-09T14:27:23.644Z,6.65
2022-12-09T14:32:26.868Z,7.47
2022-12-09T14:37:25.438Z,9.30
2022-12-09T14:43:06.402Z,7.03
2022-12-09T14:53:00.887Z,7.85
2022-12-09T14:57:56.660Z,6.88
2022-12-09T15:03:30.012Z,6.45
2022-12-09T15:08:41.309Z,6.93
2022-12-09T15:13:41.284Z,7.35
2022-12-09T15:18:39.038Z,7.22
2022-12-09T15:23:56.081Z,6.80
2022-12-09T15:28:54.568Z,7.07
2022-12-09T15:33:54.572Z,7.85
2022-12-09T15:38:55.805Z,6.63
2022-12-09T15:43:55.961Z,6.68
2022-12-09T15:49:01.987Z,8.68
2022-12-09T15:54:02.200Z,9.98
2022-12-09T15:59:01.150Z,202.55
2022-12-09T16:03:57.817Z,64.15
2022-12-09T16:08:55.316Z,13.33
2022-12-09T16:14:02.611Z,13.63
2022-12-09T16:19:05.674Z,13.48
2022-12-09T16:24:16.966Z,9.63
2022-12-09T16:29:28.985Z,12.27
2022-12-09T16:34:22.911Z,15.63
2022-12-09T16:39:25.534Z,16.15
2022-12-09T16:44:28.795Z,16.73
2022-12-09T16:49:23.220Z,14.80
2022-12-09T16:54:20.775Z,18.70
2022-12-09T16:59:15.215Z,19.05
2022-12-09T17:04:26.777Z,18.85
2022-12-09T17:09:19.799Z,19.80
2022-12-09T17:14:15.226Z,21.65
2022-12-09T17:19:08.950Z,17.75
2022-12-09T17:24:03.402Z,18.33
2022-12-09T17:29:01.563Z,19.17
2022-12-09T17:33:57.871Z,25.27
2022-12-09T17:38:52.434Z,19.63
2022-12-09T17:43:46.308Z,21.63
2022-12-09T17:48:41.932Z,18.30
2022-12-09T17:53:40.077Z,19.50
2022-12-09T17:58:33.455Z,23.10
2022-12-09T18:03:54.407Z,17.70
2022-12-09T18:08:39.764Z,18.95
2022-12-09T18:13:33.589Z,21.33
2022-12-09T18:31:11.441Z,19.40
2022-12-09T18:36:13.890Z,18.67
2022-12-09T18:41:15.276Z,19.05
2022-12-09T18:46:35.664Z,18.98
2022-12-09T18:56:21.802Z,17.45
2022-12-09T19:01:20.236Z,21.40
2022-12-09T19:06:19.866Z,27.73
2022-12-09T19:11:13.966Z,17.05
2022-12-09T19:16:09.161Z,19.40
2022-12-09T19:21:14.438Z,16.23
2022-12-09T19:26:16.412Z,17.42
2022-12-09T19:31:17.729Z,16.65
2022-12-09T19:36:12.356Z,15.85
2022-12-09T19:41:06.602Z,18.52
2022-12-09T19:46:04.474Z,17.27
2022-12-09T19:50:58.069Z,18.00
2022-12-09T19:55:51.812Z,16.10
2022-12-09T20:00:46.512Z,16.25
2022-12-09T20:05:48.266Z,15.88
2022-12-09T20:10:46.205Z,17.38
2022-12-09T20:15:40.414Z,19.55
2022-12-09T20:20:37.542Z,17.98
2022-12-09T20:25:33.136Z,16.30
2022-12-09T20:30:28.505Z,15.20
2022-12-09T20:35:20.852Z,14.68
2022-12-09T20:40:14.689Z,14.55
2022-12-09T20:45:08.622Z,15.85
2022-12-09T20:50:01.997Z,18.55
2022-12-09T20:54:56.192Z,19.35
2022-12-09T20:59:50.387Z,18.77
2022-12-09T21:04:46.045Z,19.00
2022-12-09T21:09:40.765Z,17.17
2022-12-09T21:14:37.172Z,18.38
2022-12-09T21:19:32.845Z,18.38
2022-12-09T21:24:26.435Z,21.13
2022-12-09T21:29:20.158Z,14.70
2022-12-09T21:34:15.201Z,16.40
2022-12-09T21:39:09.503Z,17.45
2022-12-09T21:44:03.763Z,22.48
2022-12-09T21:49:03.673Z,19.88
2022-12-09T21:53:59.571Z,17.98
2022-12-09T21:58:55.553Z,20.08
2022-12-09T22:03:49.771Z,19.35
2022-12-09T22:08:47.808Z,20.63
2022-12-09T22:13:41.583Z,21.57
2022-12-09T22:18:38.825Z,23.80
2022-12-09T22:23:33.469Z,23.07
2022-12-09T22:28:28.051Z,25.27
2022-12-09T22:33:23.355Z,21.63
2022-12-09T22:38:22.930Z,22.20
2022-12-09T22:43:17.523Z,19.48
2022-12-09T22:48:15.286Z,19.23
2022-12-09T22:53:10.322Z,36.80
2022-12-09T22:58:05.218Z,22.33
2022-12-09T23:03:00.655Z,18.25
2022-12-09T23:07:55.351Z,13.45
2022-12-09T23:12:50.554Z,13.75
2022-12-09T23:17:44.233Z,15.13
2022-12-09T23:22:38.165Z,13.07
2022-12-09T23:27:32.185Z,12.15
2022-12-09T23:32:26.106Z,12.15
2022-12-09T23:37:20.142Z,12.45
2022-12-09T23:42:15.021Z,11.32
2022-12-09T23:47:08.505Z,10.35
2022-12-09T23:52:02.340Z,10.85
2022-12-09T23:56:56.883Z,10.27
